地図

経路データ

SID SEASON NUMBER BASIN SUBBASIN NAME ISO_TIME NATURE LAT LON WMO_WIND WMO_PRES WMO_AGENCY TRACK_TYPE DIST2LAND LANDFALL IFLAG USA_AGENCY USA_ATCF_ID USA_LAT USA_LON USA_RECORD USA_STATUS USA_WIND USA_PRES USA_SSHS USA_R34_NE USA_R34_SE USA_R34_SW USA_R34_NW USA_R50_NE USA_R50_SE USA_R50_SW USA_R50_NW USA_R64_NE USA_R64_SE USA_R64_SW USA_R64_NW USA_POCI USA_ROCI USA_RMW USA_EYE TOKYO_LAT TOKYO_LON TOKYO_GRADE TOKYO_WIND TOKYO_PRES TOKYO_R50_DIR TOKYO_R50_LONG TOKYO_R50_SHORT TOKYO_R30_DIR TOKYO_R30_LONG TOKYO_R30_SHORT TOKYO_LAND CMA_LAT CMA_LON CMA_CAT CMA_WIND CMA_PRES HKO_LAT HKO_LON HKO_CAT HKO_WIND HKO_PRES NEWDELHI_LAT NEWDELHI_LON NEWDELHI_GRADE NEWDELHI_WIND NEWDELHI_PRES NEWDELHI_CI NEWDELHI_DP NEWDELHI_POCI REUNION_LAT REUNION_LON REUNION_TYPE REUNION_WIND REUNION_PRES REUNION_TNUM REUNION_CI REUNION_RMW REUNION_R34_NE REUNION_R34_SE REUNION_R34_SW REUNION_R34_NW REUNION_R50_NE REUNION_R50_SE REUNION_R50_SW REUNION_R50_NW REUNION_R64_NE REUNION_R64_SE REUNION_R64_SW REUNION_R64_NW BOM_LAT BOM_LON BOM_TYPE BOM_WIND BOM_PRES BOM_TNUM BOM_CI BOM_RMW BOM_R34_NE BOM_R34_SE BOM_R34_SW BOM_R34_NW BOM_R50_NE BOM_R50_SE BOM_R50_SW BOM_R50_NW BOM_R64_NE BOM_R64_SE BOM_R64_SW BOM_R64_NW BOM_ROCI BOM_POCI BOM_EYE BOM_POS_METHOD BOM_PRES_METHOD NADI_LAT NADI_LON NADI_CAT NADI_WIND NADI_PRES WELLINGTON_LAT WELLINGTON_LON WELLINGTON_WIND WELLINGTON_PRES DS824_LAT DS824_LON DS824_STAGE DS824_WIND DS824_PRES TD9636_LAT TD9636_LON TD9636_STAGE TD9636_WIND TD9636_PRES TD9635_LAT TD9635_LON TD9635_WIND TD9635_PRES TD9635_ROCI NEUMANN_LAT NEUMANN_LON NEUMANN_CLASS NEUMANN_WIND NEUMANN_PRES MLC_LAT MLC_LON MLC_CLASS MLC_WIND MLC_PRES USA_GUST BOM_GUST BOM_GUST_PER REUNION_GUST REUNION_GUST_PER USA_SEAHGT USA_SEARAD_NE USA_SEARAD_SE USA_SEARAD_SW USA_SEARAD_NW STORM_SPEED STORM_DIR
1903041S12057 1903 14 SI MM NOT_NAMED 1903-02-10 00:00:00 TS -11.5000 56.9000 main 779 755 _________O____ -1 -11.5000 56.9000 TC 6 239
1903041S12057 1903 14 SI MM NOT_NAMED 1903-02-10 03:00:00 TS -11.6501 56.6476 main 741 717 _________P____ -1 -11.6501 56.6476 TC 6 238
1903041S12057 1903 14 SI MM NOT_NAMED 1903-02-10 06:00:00 TS -11.8000 56.4000 main 717 693 _________O____ -1 -11.8000 56.4000 TC 6 238
1903041S12057 1903 14 SI MM NOT_NAMED 1903-02-10 09:00:00 TS -11.9500 56.1575 main 693 656 _________P____ -1 -11.9500 56.1575 TC 6 238
1903041S12057 1903 14 SI MM NOT_NAMED 1903-02-10 12:00:00 TS -12.1000 55.9000 main 656 622 _________O____ -1 -12.1000 55.9000 TC 6 241
1903041S12057 1903 14 SI MM NOT_NAMED 1903-02-10 15:00:00 TS -12.2500 55.6075 main 622 584 _________P____ -1 -12.2500 55.6075 TC 7 243
1903041S12057 1903 14 SI MM NOT_NAMED 1903-02-10 18:00:00 TS -12.4000 55.3000 main 584 550 _________O____ -1 -12.4000 55.3000 TC 7 244
1903041S12057 1903 14 SI MM NOT_NAMED 1903-02-10 21:00:00 TS -12.5500 54.9850 main 547 513 _________P____ -1 -12.5500 54.9850 TC 7 243
1903041S12057 1903 14 SI MM NOT_NAMED 1903-02-11 00:00:00 TS -12.7000 54.7000 main 513 489 _________O____ -1 -12.7000 54.7000 TC 6 238
1903041S12057 1903 14 SI MM NOT_NAMED 1903-02-11 03:00:00 TS -12.8499 54.4850 main 489 463 _________P____ -1 -12.8499 54.4850 TC 5 232
1903041S12057 1903 14 SI MM NOT_NAMED 1903-02-11 06:00:00 TS -13.0000 54.3000 main 463 439 _________O____ -1 -13.0000 54.3000 TC 5 231
1903041S12057 1903 14 SI MM NOT_NAMED 1903-02-11 09:00:00 TS -13.1500 54.1000 main 439 414 _________P____ -1 -13.1500 54.1000 TC 5 232
1903041S12057 1903 14 SI MM NOT_NAMED 1903-02-11 12:00:00 TS -13.3000 53.9000 main 414 391 _________O____ -1 -13.3000 53.9000 TC 5 232
1903041S12057 1903 14 SI MM NOT_NAMED 1903-02-11 15:00:00 TS -13.4500 53.7000 main 391 368 _________P____ -1 -13.4500 53.7000 TC 5 232
1903041S12057 1903 14 SI MM NOT_NAMED 1903-02-11 18:00:00 TS -13.6000 53.5000 main 368 345 _________O____ -1 -13.6000 53.5000 TC 5 233
1903041S12057 1903 14 SI MM NOT_NAMED 1903-02-11 21:00:00 TS -13.7500 53.2925 main 345 315 _________P____ -1 -13.7500 53.2925 TC 5 232
1903041S12057 1903 14 SI MM NOT_NAMED 1903-02-12 00:00:00 TS -13.9000 53.1000 main 315 300 _________O____ -1 -13.9000 53.1000 TC 5 229
1903041S12057 1903 14 SI MM NOT_NAMED 1903-02-12 03:00:00 TS -14.0500 52.9425 main 291 271 _________P____ -1 -14.0500 52.9425 TC 4 224
1903041S12057 1903 14 SI MM NOT_NAMED 1903-02-12 06:00:00 TS -14.2000 52.8000 main 271 257 _________O____ -1 -14.2000 52.8000 TC 4 225
1903041S12057 1903 14 SI MM NOT_NAMED 1903-02-12 09:00:00 TS -14.3425 52.6425 main 247 228 _________P____ -1 -14.3425 52.6425 TC 4 224
1903041S12057 1903 14 SI MM NOT_NAMED 1903-02-12 12:00:00 TS -14.5000 52.5000 main 228 211 _________O____ -1 -14.5000 52.5000 TC 4 215
1903041S12057 1903 14 SI MM NOT_NAMED 1903-02-12 15:00:00 TS -14.6925 52.3850 main 211 196 _________P____ -1 -14.6925 52.3850 TC 4 206
1903041S12057 1903 14 SI MM NOT_NAMED 1903-02-12 18:00:00 TS -14.9000 52.3000 main 196 182 _________O____ -1 -14.9000 52.3000 TC 4 202
1903041S12057 1903 14 SI MM NOT_NAMED 1903-02-12 21:00:00 TS -15.0775 52.2275 main 182 182 _________P____ -1 -15.0775 52.2275 TC 4 193
1903041S12057 1903 14 SI MM NOT_NAMED 1903-02-13 00:00:00 TS -15.3000 52.2000 main 182 182 _________O____ -1 -15.3000 52.2000 TC 6 181
1903041S12057 1903 14 SI MM NOT_NAMED 1903-02-13 03:00:00 TS -15.6425 52.2051 main 183 183 _________P____ -1 -15.6425 52.2051 TC 7 172
1903041S12057 1903 14 SI MM NOT_NAMED 1903-02-13 06:00:00 TS -16.0000 52.3000 main 204 204 _________O____ -1 -16.0000 52.3000 TC 7 155
1903041S12057 1903 14 SI MM NOT_NAMED 1903-02-13 09:00:00 TS -16.2725 52.5125 main 236 236 _________P____ -1 -16.2725 52.5125 TC 7 136
1903041S12057 1903 14 SI MM NOT_NAMED 1903-02-13 12:00:00 TS -16.5000 52.8000 main 275 275 _________O____ -1 -16.5000 52.8000 TC 7 128
1903041S12057 1903 14 SI MM NOT_NAMED 1903-02-13 15:00:00 TS -16.7150 53.0925 main 313 313 _________P____ -1 -16.7150 53.0925 TC 7 125
1903041S12057 1903 14 SI MM NOT_NAMED 1903-02-13 18:00:00 TS -16.9000 53.4000 main 351 351 _________O____ -1 -16.9000 53.4000 TC 7 120
1903041S12057 1903 14 SI MM NOT_NAMED 1903-02-13 21:00:00 TS -17.0424 53.6852 main 385 385 _________P____ -1 -17.0424 53.6852 TC 6 118
1903041S12057 1903 14 SI MM NOT_NAMED 1903-02-14 00:00:00 TS -17.2000 54.0000 main 423 413 _________O____ -1 -17.2000 54.0000 TC 8 121
1903041S12057 1903 14 SI MM NOT_NAMED 1903-02-14 03:00:00 TS -17.4350 54.3775 main 413 372 _________P____ -1 -17.4350 54.3775 TC 9 123
1903041S12057 1903 14 SI MM NOT_NAMED 1903-02-14 06:00:00 TS -17.7000 54.8000 main 372 335 _________O____ -1 -17.7000 54.8000 TC 10 122
1903041S12057 1903 14 SI MM NOT_NAMED 1903-02-14 09:00:00 TS -17.9650 55.2574 main 329 284 _________P____ -1 -17.9650 55.2574 TC 10 120
1903041S12057 1903 14 SI MM NOT_NAMED 1903-02-14 12:00:00 TS -18.2000 55.7000 main 284 246 _________O____ -1 -18.2000 55.7000 TC 9 118
1903041S12057 1903 14 SI MM NOT_NAMED 1903-02-14 15:00:00 TS -18.3723 56.0577 main 240 212 _________P____ -1 -18.3723 56.0577 TC 7 114
1903041S12057 1903 14 SI MM NOT_NAMED 1903-02-14 18:00:00 TS -18.5000 56.4000 main 212 183 _________O____ -1 -18.5000 56.4000 TC 8 109
1903041S12057 1903 14 SI MM NOT_NAMED 1903-02-14 21:00:00 TS -18.6151 56.8150 main 183 159 _________P____ -1 -18.6151 56.8150 TC 8 105
1903041S12057 1903 14 SI MM NOT_NAMED 1903-02-15 00:00:00 TS -18.7000 57.2000 main 159 156 _________O____ -1 -18.7000 57.2000 TC 6 102
1903041S12057 1903 14 SI MM NOT_NAMED 1903-02-15 03:00:00 TS -18.7499 57.4726 main 156 145 _________P____ -1 -18.7499 57.4726 TC 5 102
1903041S12057 1903 14 SI MM NOT_NAMED 1903-02-15 06:00:00 TS -18.8000 57.7000 main 145 134 _________O____ -1 -18.8000 57.7000 TC 5 108
1903041S12057 1903 14 SI MM NOT_NAMED 1903-02-15 09:00:00 TS -18.8924 57.9425 main 135 129 _________P____ -1 -18.8924 57.9425 TC 5 113
1903041S12057 1903 14 SI MM NOT_NAMED 1903-02-15 12:00:00 TS -19.0000 58.2000 main 133 128 _________O____ -1 -19.0000 58.2000 TC 6 111
1903041S12057 1903 14 SI MM NOT_NAMED 1903-02-15 15:00:00 TS -19.1000 58.5000 main 139 139 _________P____ -1 -19.1000 58.5000 TC 6 109
1903041S12057 1903 14 SI MM NOT_NAMED 1903-02-15 18:00:00 TS -19.2000 58.8000 main 152 152 _________O____ -1 -19.2000 58.8000 TC 6 111
1903041S12057 1903 14 SI MM NOT_NAMED 1903-02-15 21:00:00 TS -19.3000 59.0625 main 171 171 _________P____ -1 -19.3000 59.0625 TC 5 113
1903041S12057 1903 14 SI MM NOT_NAMED 1903-02-16 00:00:00 TS -19.4000 59.3000 main 184 _________O____ -1 -19.4000 59.3000 TC 5 114

IBTrACS Databaseについて

本データベースは、米国NOAAが公開する1842年以降の世界の熱帯低気圧のベストトラックデータアーカイブInternational Best Track Archive for Climate Stewardship (IBTrACS)を、ウェブで閲覧しやすい形式に変換したものです。

最終更新日:2021-12-06